createdAt,value
2022-09-13T00:02:12.309Z,4.90
2022-09-13T00:04:41.396Z,4.07
2022-09-13T00:07:10.302Z,4.43
2022-09-13T00:09:41.695Z,4.30
2022-09-13T00:12:13.042Z,3.77
2022-09-13T00:14:41.694Z,4.20
2022-09-13T00:17:10.271Z,3.87
2022-09-13T00:19:38.834Z,4.13
2022-09-13T00:22:07.387Z,4.60
2022-09-13T00:24:36.040Z,4.03
2022-09-13T00:27:04.659Z,4.17
2022-09-13T00:29:34.667Z,3.83
2022-09-13T00:32:03.436Z,4.20
2022-09-13T00:34:32.254Z,3.70
2022-09-13T00:37:00.716Z,4.10
2022-09-13T00:39:29.224Z,4.30
2022-09-13T00:41:57.714Z,4.30
2022-09-13T00:44:41.419Z,4.23
2022-09-13T00:47:12.612Z,4.07
2022-09-13T00:49:42.579Z,4.40
2022-09-13T00:52:14.938Z,4.03
2022-09-13T00:54:45.376Z,3.87
2022-09-13T00:57:16.018Z,4.30
2022-09-13T00:59:47.493Z,3.70
2022-09-13T01:02:18.704Z,4.50
2022-09-13T01:04:47.462Z,3.70
2022-09-13T01:07:18.404Z,4.00
2022-09-13T01:09:48.132Z,4.13
2022-09-13T01:12:18.975Z,3.93
2022-09-13T01:14:48.519Z,4.23
2022-09-13T01:17:18.405Z,3.40
2022-09-13T01:19:46.970Z,4.67
2022-09-13T01:22:36.476Z,4.20
2022-09-13T01:25:28.949Z,3.63
2022-09-13T01:28:06.738Z,4.00
2022-09-13T01:30:38.184Z,4.57
2022-09-13T01:33:12.902Z,4.77
2022-09-13T01:35:46.766Z,3.90
2022-09-13T01:38:21.051Z,4.30
2022-09-13T01:40:55.378Z,4.60
2022-09-13T01:43:31.965Z,3.80
2022-09-13T01:46:05.499Z,4.00
2022-09-13T01:48:38.535Z,4.93
2022-09-13T01:51:09.596Z,6.10
2022-09-13T01:53:44.204Z,4.60
2022-09-13T01:56:14.423Z,3.87
2022-09-13T01:58:45.514Z,4.53
2022-09-13T02:01:18.155Z,3.87
2022-09-13T02:03:50.147Z,4.50
2022-09-13T02:06:21.963Z,4.20
2022-09-13T02:08:53.106Z,4.10
2022-09-13T02:11:22.454Z,4.37
2022-09-13T02:13:53.258Z,4.20
2022-09-13T02:16:28.716Z,4.40
2022-09-13T02:19:00.027Z,4.60
2022-09-13T02:21:31.059Z,4.40
2022-09-13T02:24:02.576Z,4.20
2022-09-13T02:26:32.447Z,4.00
2022-09-13T02:29:03.099Z,4.90
2022-09-13T02:31:37.101Z,4.10
2022-09-13T02:34:09.661Z,4.70
2022-09-13T02:36:41.019Z,4.87
2022-09-13T02:39:11.264Z,3.70
2022-09-13T02:41:45.582Z,5.00
2022-09-13T02:44:16.463Z,4.13
2022-09-13T02:47:03.244Z,4.53
2022-09-13T02:49:36.042Z,3.90
2022-09-13T02:52:08.827Z,4.50
2022-09-13T02:54:40.872Z,4.43
2022-09-13T02:57:12.760Z,4.17
2022-09-13T02:59:41.272Z,4.93
2022-09-13T03:02:11.567Z,5.03
2022-09-13T03:04:41.763Z,5.20
2022-09-13T03:07:12.719Z,4.70
2022-09-13T03:09:44.647Z,5.30
2022-09-13T03:12:22.671Z,5.27
2022-09-13T03:14:54.863Z,4.53
2022-09-13T03:17:31.974Z,5.13
2022-09-13T03:20:08.398Z,5.07
2022-09-13T03:23:00.822Z,4.43
2022-09-13T03:25:35.247Z,4.20
2022-09-13T03:28:08.062Z,4.07
2022-09-13T03:30:37.742Z,4.40
2022-09-13T03:33:08.278Z,4.43
2022-09-13T03:35:40.627Z,4.10
2022-09-13T03:38:11.284Z,4.40
2022-09-13T03:40:42.820Z,4.57
2022-09-13T03:43:15.197Z,4.33
2022-09-13T03:45:44.780Z,4.80
2022-09-13T03:48:14.051Z,4.40
2022-09-13T03:50:44.379Z,4.80
2022-09-13T03:53:13.759Z,4.57
2022-09-13T03:55:43.302Z,4.50
2022-09-13T03:58:13.198Z,5.00
2022-09-13T04:00:41.755Z,4.50
2022-09-13T04:03:10.891Z,5.40
2022-09-13T04:05:39.563Z,4.60
2022-09-13T04:08:09.897Z,4.63
2022-09-13T04:10:38.583Z,4.80
2022-09-13T04:13:07.119Z,5.53
2022-09-13T04:15:35.575Z,5.50
2022-09-13T04:18:04.206Z,4.80
2022-09-13T04:20:32.785Z,4.90
2022-09-13T04:23:01.257Z,5.63
2022-09-13T04:25:31.179Z,4.80
2022-09-13T04:27:59.950Z,5.13
2022-09-13T04:30:29.430Z,5.10
2022-09-13T04:32:59.476Z,5.27
2022-09-13T04:35:28.881Z,4.67
2022-09-13T04:37:57.875Z,5.53
2022-09-13T04:40:26.409Z,4.40
2022-09-13T04:42:56.228Z,4.90
2022-09-13T04:45:25.439Z,4.30
2022-09-13T04:47:54.189Z,4.10
2022-09-13T04:50:25.650Z,4.80
2022-09-13T04:52:56.682Z,4.93
2022-09-13T04:55:26.038Z,5.03
2022-09-13T04:57:57.179Z,4.50
2022-09-13T05:00:26.208Z,5.07
2022-09-13T05:02:57.905Z,4.50
2022-09-13T05:05:28.939Z,4.20
2022-09-13T05:07:58.565Z,4.97
2022-09-13T05:10:27.021Z,4.77
2022-09-13T05:12:56.886Z,4.87
2022-09-13T05:15:25.453Z,6.07
2022-09-13T05:17:53.947Z,4.80
2022-09-13T05:20:22.482Z,5.70
2022-09-13T05:22:51.013Z,4.97
2022-09-13T05:25:22.984Z,4.90
2022-09-13T05:27:53.980Z,4.93
2022-09-13T05:30:23.979Z,5.77
2022-09-13T05:32:52.737Z,5.20
2022-09-13T05:35:21.319Z,4.70
2022-09-13T05:37:50.768Z,5.40
2022-09-13T05:40:19.528Z,5.43
2022-09-13T05:42:48.092Z,5.20
2022-09-13T05:45:16.832Z,5.37
2022-09-13T05:47:46.732Z,4.47
2022-09-13T05:50:27.487Z,4.90
2022-09-13T05:53:04.067Z,4.80
2022-09-13T05:55:32.793Z,4.73
2022-09-13T05:58:01.347Z,5.00
2022-09-13T06:00:31.723Z,4.90
2022-09-13T06:03:01.629Z,4.50
2022-09-13T06:05:31.991Z,4.13
2022-09-13T06:08:00.654Z,4.13
2022-09-13T06:10:29.427Z,4.80
2022-09-13T06:12:58.049Z,4.63
2022-09-13T06:15:26.728Z,3.83
2022-09-13T06:17:55.216Z,4.40
2022-09-13T06:20:25.146Z,4.90
2022-09-13T06:22:53.711Z,4.67
2022-09-13T06:25:22.553Z,4.67
2022-09-13T06:27:51.055Z,3.73
2022-09-13T06:30:19.777Z,5.37
2022-09-13T06:32:48.385Z,4.40
2022-09-13T06:35:17.867Z,4.10
2022-09-13T06:37:47.719Z,4.70
2022-09-13T06:40:18.212Z,4.60
2022-09-13T06:42:48.396Z,4.20
2022-09-13T06:45:17.062Z,4.10
2022-09-13T06:47:45.826Z,3.60
2022-09-13T06:50:14.750Z,4.60
2022-09-13T06:52:43.460Z,4.57
2022-09-13T06:55:13.465Z,4.10
2022-09-13T06:57:41.948Z,3.80
2022-09-13T07:00:11.408Z,4.60
2022-09-13T07:02:39.983Z,4.10
2022-09-13T07:05:10.889Z,3.73
2022-09-13T07:07:39.547Z,3.80
2022-09-13T07:10:08.707Z,3.97
2022-09-13T07:12:38.600Z,4.00
2022-09-13T07:15:07.622Z,3.87
2022-09-13T07:17:36.226Z,3.73
2022-09-13T07:20:07.186Z,3.80
2022-09-13T07:22:35.822Z,4.20
2022-09-13T07:25:04.314Z,4.57
2022-09-13T07:27:32.843Z,3.97
2022-09-13T07:30:02.834Z,3.70
2022-09-13T07:32:33.909Z,3.97
2022-09-13T07:35:02.664Z,4.17
2022-09-13T07:37:31.875Z,4.27
2022-09-13T07:40:00.511Z,4.90
2022-09-13T07:42:29.183Z,3.97
2022-09-13T07:44:57.874Z,3.23
2022-09-13T07:47:27.918Z,3.70
2022-09-13T07:49:56.421Z,4.20
2022-09-13T07:52:24.990Z,4.00
2022-09-13T07:54:53.495Z,4.00
2022-09-13T07:57:22.078Z,3.47
2022-09-13T07:59:51.443Z,4.17
2022-09-13T08:02:20.236Z,3.67
2022-09-13T08:04:50.171Z,3.73
2022-09-13T08:07:18.963Z,3.93
2022-09-13T08:09:47.504Z,3.63
2022-09-13T08:12:16.449Z,4.17
2022-09-13T08:14:45.025Z,4.20
2022-09-13T08:17:13.590Z,3.07
2022-09-13T08:19:42.410Z,3.80
2022-09-13T08:22:12.406Z,3.23
2022-09-13T08:24:40.975Z,3.90
2022-09-13T08:27:09.686Z,3.57
2022-09-13T08:29:38.497Z,3.90
2022-09-13T08:32:07.198Z,3.40
2022-09-13T08:34:35.792Z,3.60
2022-09-13T08:37:04.431Z,3.87
2022-09-13T08:39:34.733Z,2.93
2022-09-13T08:42:10.226Z,4.23
2022-09-13T08:44:40.563Z,4.00
2022-09-13T08:47:25.392Z,3.77
2022-09-13T08:49:56.154Z,4.23
2022-09-13T08:52:30.647Z,4.27
2022-09-13T08:55:01.561Z,3.60
2022-09-13T08:57:33.946Z,3.30
2022-09-13T09:00:05.266Z,4.00
2022-09-13T09:02:51.894Z,4.37
2022-09-13T09:05:21.979Z,4.50
2022-09-13T09:07:53.723Z,3.97
2022-09-13T09:10:26.103Z,4.10
2022-09-13T09:12:56.993Z,3.97
2022-09-13T09:15:26.398Z,2.90
2022-09-13T09:17:57.608Z,3.70
2022-09-13T09:20:33.346Z,3.20
2022-09-13T09:23:04.955Z,3.03
2022-09-13T09:25:36.177Z,3.37
2022-09-13T09:28:11.790Z,3.17
2022-09-13T09:30:42.935Z,3.57
2022-09-13T09:33:21.163Z,3.37
2022-09-13T09:35:54.975Z,3.87
2022-09-13T09:38:44.882Z,3.90
2022-09-13T09:41:18.200Z,2.77
2022-09-13T09:43:50.659Z,2.80
2022-09-13T09:46:22.891Z,2.17
2022-09-13T09:48:54.254Z,2.23
2022-09-13T09:51:25.715Z,2.50
2022-09-13T09:53:56.664Z,3.27
2022-09-13T09:56:28.456Z,2.43
2022-09-13T09:58:57.204Z,2.37
2022-09-13T10:01:26.735Z,2.07
2022-09-13T10:04:08.705Z,1.80
2022-09-13T10:06:37.824Z,2.53
2022-09-13T10:09:07.520Z,1.97
2022-09-13T10:11:41.852Z,1.90
2022-09-13T10:14:28.271Z,1.60
2022-09-13T10:17:05.199Z,1.57
2022-09-13T10:19:34.179Z,1.97
2022-09-13T10:22:04.026Z,2.30
2022-09-13T10:24:32.512Z,1.90
2022-09-13T10:27:04.181Z,1.67
2022-09-13T10:29:33.770Z,1.90
2022-09-13T10:32:09.931Z,2.07
2022-09-13T10:34:39.469Z,2.13
2022-09-13T10:37:13.817Z,1.90
2022-09-13T10:39:52.620Z,1.80
2022-09-13T10:42:23.637Z,1.90
2022-09-13T10:44:55.784Z,1.80
2022-09-13T10:47:25.534Z,1.50
2022-09-13T10:49:54.916Z,1.87
2022-09-13T10:52:28.416Z,1.80
2022-09-13T10:54:57.786Z,1.63
2022-09-13T10:57:34.486Z,1.60
2022-09-13T11:00:04.108Z,2.17
2022-09-13T11:02:44.296Z,1.37
2022-09-13T11:05:24.202Z,2.20
2022-09-13T11:08:12.777Z,1.93
2022-09-13T11:10:45.510Z,1.93
2022-09-13T11:13:23.769Z,1.70
2022-09-13T11:15:56.732Z,1.77
2022-09-13T11:18:45.979Z,1.67
2022-09-13T11:21:23.497Z,1.40
2022-09-13T11:24:07.300Z,1.77
2022-09-13T11:26:42.040Z,2.03
2022-09-13T11:29:19.961Z,1.60
2022-09-13T11:31:54.272Z,1.93
2022-09-13T11:34:30.335Z,1.40
2022-09-13T11:37:16.740Z,1.60
2022-09-13T11:39:47.383Z,1.70
2022-09-13T11:42:23.258Z,2.03
2022-09-13T11:45:24.867Z,1.70
2022-09-13T11:48:02.295Z,1.70
2022-09-13T11:50:38.103Z,1.60
2022-09-13T11:53:14.726Z,2.03
2022-09-13T11:55:44.533Z,1.80
2022-09-13T11:58:15.350Z,1.80
2022-09-13T12:00:45.398Z,1.67
2022-09-13T12:03:18.808Z,1.50
2022-09-13T12:05:49.270Z,1.47
2022-09-13T12:08:19.837Z,1.70
2022-09-13T12:10:50.663Z,2.03
2022-09-13T12:13:21.517Z,2.00
2022-09-13T12:15:53.336Z,1.33
2022-09-13T12:18:25.911Z,1.77
2022-09-13T12:20:55.999Z,1.63
2022-09-13T12:23:26.508Z,1.67
2022-09-13T12:25:57.912Z,1.50
2022-09-13T12:28:28.405Z,1.47
2022-09-13T12:30:59.488Z,1.50
2022-09-13T12:33:29.692Z,1.60
2022-09-13T12:36:10.081Z,1.57
2022-09-13T12:38:53.634Z,1.60
2022-09-13T12:41:30.491Z,1.50
2022-09-13T12:44:17.087Z,2.43
2022-09-13T12:47:04.557Z,1.30
2022-09-13T12:49:44.647Z,1.50
2022-09-13T12:52:26.772Z,1.80
2022-09-13T12:55:05.684Z,1.70
2022-09-13T12:57:38.687Z,2.07
2022-09-13T13:00:23.628Z,1.60
2022-09-13T13:02:54.976Z,1.80
2022-09-13T13:05:27.519Z,1.20
2022-09-13T13:07:58.217Z,2.47
2022-09-13T13:10:30.622Z,2.07
2022-09-13T13:13:11.222Z,1.77
2022-09-13T13:15:57.443Z,1.73
2022-09-13T13:18:29.325Z,1.70
2022-09-13T13:21:16.589Z,1.63
2022-09-13T13:23:46.908Z,1.70
2022-09-13T13:26:35.577Z,1.60
2022-09-13T13:29:15.691Z,1.50
2022-09-13T13:32:07.732Z,1.40
2022-09-13T13:34:39.827Z,1.87
2022-09-13T13:37:28.041Z,2.03
2022-09-13T13:40:15.079Z,2.00
2022-09-13T13:42:45.134Z,1.50
2022-09-13T13:45:22.319Z,1.80
2022-09-13T13:48:05.773Z,1.47
2022-09-13T13:50:37.605Z,1.50
2022-09-13T13:53:22.718Z,1.80
2022-09-13T13:56:08.438Z,1.60
2022-09-13T13:58:45.144Z,2.03
2022-09-13T14:01:16.688Z,1.50
2022-09-13T14:03:52.924Z,1.20
2022-09-13T14:06:25.287Z,1.80
2022-09-13T14:11:43.431Z,1.63
2022-09-13T14:14:27.850Z,1.50
2022-09-13T14:17:02.006Z,1.80
2022-09-13T14:19:31.842Z,1.50
2022-09-13T14:22:07.508Z,2.00
2022-09-13T14:24:42.300Z,2.40
2022-09-13T14:27:17.518Z,2.38
2022-09-13T14:29:46.852Z,1.75
2022-09-13T14:32:18.186Z,1.88
2022-09-13T14:34:54.831Z,1.60
2022-09-13T14:37:28.418Z,1.80
2022-09-13T14:39:58.505Z,2.47
2022-09-13T14:42:29.026Z,1.80
2022-09-13T14:44:57.748Z,1.63
2022-09-13T14:47:30.047Z,1.60
2022-09-13T14:50:01.287Z,1.53
2022-09-13T14:52:31.147Z,1.70
2022-09-13T14:55:03.552Z,1.70
2022-09-13T14:57:34.915Z,1.47
2022-09-13T15:00:04.655Z,1.60
2022-09-13T15:02:37.792Z,1.33
2022-09-13T15:05:09.020Z,1.40
2022-09-13T15:07:38.875Z,1.90
2022-09-13T15:10:08.959Z,1.67
2022-09-13T15:12:39.211Z,1.47
2022-09-13T15:15:31.931Z,1.90
2022-09-13T15:18:01.335Z,1.87
2022-09-13T15:20:30.763Z,1.83
2022-09-13T15:22:59.663Z,1.37
2022-09-13T15:25:29.407Z,1.53
2022-09-13T15:27:59.951Z,1.60
2022-09-13T15:30:29.813Z,1.60
2022-09-13T15:33:16.312Z,1.40
2022-09-13T15:35:46.006Z,1.63
2022-09-13T15:38:28.224Z,1.97
2022-09-13T15:41:02.569Z,2.00
2022-09-13T15:43:32.670Z,1.63
2022-09-13T15:46:02.700Z,1.67
2022-09-13T15:48:32.085Z,1.60
2022-09-13T15:51:09.349Z,1.40
2022-09-13T15:53:38.952Z,1.73
2022-09-13T15:56:09.221Z,1.87
2022-09-13T15:58:41.724Z,1.77
2022-09-13T16:01:13.739Z,1.63
2022-09-13T16:03:42.532Z,2.30
2022-09-13T16:06:11.773Z,1.90
2022-09-13T16:08:41.190Z,1.60
2022-09-13T16:11:12.691Z,2.10
2022-09-13T16:13:45.891Z,2.37
2022-09-13T16:16:15.480Z,2.30
2022-09-13T16:18:44.066Z,2.60
2022-09-13T16:21:12.620Z,2.80
2022-09-13T16:23:41.144Z,2.60
2022-09-13T16:26:09.661Z,2.17
2022-09-13T16:28:38.232Z,2.33
2022-09-13T16:31:08.268Z,2.57
2022-09-13T16:33:37.050Z,2.20
2022-09-13T16:36:05.884Z,2.70
2022-09-13T16:38:34.503Z,2.40
2022-09-13T16:41:06.052Z,2.37
2022-09-13T16:43:34.652Z,2.77
2022-09-13T16:46:09.092Z,2.93
2022-09-13T16:48:37.870Z,2.60
2022-09-13T16:51:06.760Z,3.30
2022-09-13T16:53:35.819Z,3.07
2022-09-13T16:56:07.587Z,2.10
2022-09-13T16:58:37.873Z,3.30
2022-09-13T17:01:08.415Z,2.60
2022-09-13T17:03:37.681Z,2.53
2022-09-13T17:06:09.094Z,2.20
2022-09-13T17:08:38.914Z,2.80
2022-09-13T17:11:10.740Z,2.60
2022-09-13T17:13:39.956Z,2.77
2022-09-13T17:16:22.433Z,2.67
2022-09-13T17:18:51.156Z,3.40
2022-09-13T17:21:20.045Z,3.10
2022-09-13T17:23:48.760Z,2.60
2022-09-13T17:26:17.733Z,2.70
2022-09-13T17:28:46.362Z,2.37
2022-09-13T17:31:16.758Z,3.03
2022-09-13T17:33:45.498Z,2.67
2022-09-13T17:36:15.432Z,3.53
2022-09-13T17:38:44.906Z,2.30
2022-09-13T17:41:14.173Z,2.57
2022-09-13T17:43:43.537Z,2.57
2022-09-13T17:46:13.065Z,2.73
2022-09-13T17:48:43.441Z,2.40
2022-09-13T17:51:12.923Z,2.23
2022-09-13T17:53:41.887Z,2.67
2022-09-13T17:56:11.010Z,2.70
2022-09-13T17:58:39.798Z,2.70
2022-09-13T18:01:09.613Z,2.70
2022-09-13T18:03:39.440Z,2.93
2022-09-13T18:06:10.650Z,3.63
2022-09-13T18:08:39.873Z,2.60
2022-09-13T18:11:13.962Z,3.40
2022-09-13T18:13:43.512Z,3.20
2022-09-13T18:16:16.045Z,3.20
2022-09-13T18:18:47.742Z,3.97
2022-09-13T18:21:19.141Z,3.67
2022-09-13T18:23:53.359Z,3.73
2022-09-13T18:26:22.672Z,3.30
2022-09-13T18:28:55.908Z,3.70
2022-09-13T18:31:25.344Z,3.83
2022-09-13T18:33:56.745Z,3.73
2022-09-13T18:36:27.309Z,3.20
2022-09-13T18:38:56.304Z,4.23
2022-09-13T18:41:26.909Z,4.13
2022-09-13T18:43:56.490Z,4.00
2022-09-13T18:46:26.204Z,4.87
2022-09-13T18:48:57.455Z,3.40
2022-09-13T18:51:28.342Z,3.93
2022-09-13T18:53:56.851Z,5.07
2022-09-13T18:56:25.718Z,3.73
2022-09-13T18:58:54.713Z,4.83
2022-09-13T19:01:26.414Z,4.10
2022-09-13T19:03:59.839Z,3.50
2022-09-13T19:06:48.651Z,3.80
2022-09-13T19:09:17.700Z,3.83
2022-09-13T19:11:48.414Z,4.37
2022-09-13T19:14:18.118Z,5.50
2022-09-13T19:16:46.809Z,5.10
2022-09-13T19:19:15.518Z,4.40
2022-09-13T19:21:44.398Z,4.47
2022-09-13T19:24:17.624Z,5.80
2022-09-13T19:26:47.960Z,5.97
2022-09-13T19:29:19.215Z,5.90
2022-09-13T19:31:49.358Z,6.70
2022-09-13T19:34:18.478Z,6.03
2022-09-13T19:36:48.891Z,6.20
2022-09-13T19:39:19.360Z,6.63
2022-09-13T19:41:47.870Z,6.40
2022-09-13T19:44:17.537Z,6.37
2022-09-13T19:48:13.029Z,6.40
2022-09-13T19:50:43.973Z,6.87
2022-09-13T19:53:12.804Z,6.40
2022-09-13T19:55:46.820Z,5.53
2022-09-13T19:58:20.730Z,5.53
2022-09-13T20:00:49.423Z,6.90
2022-09-13T20:03:18.285Z,6.00
2022-09-13T20:05:47.647Z,6.90
2022-09-13T20:08:16.187Z,6.50
2022-09-13T20:10:46.358Z,6.87
2022-09-13T20:13:15.013Z,7.30
2022-09-13T20:15:43.933Z,6.90
2022-09-13T20:18:15.565Z,6.10
2022-09-13T20:20:44.790Z,6.23
2022-09-13T20:23:13.313Z,6.73
2022-09-13T20:25:43.206Z,6.60
2022-09-13T20:28:13.300Z,5.67
2022-09-13T20:30:43.310Z,6.17
2022-09-13T20:33:11.974Z,6.20
2022-09-13T20:35:41.260Z,5.93
2022-09-13T20:38:10.074Z,6.27
2022-09-13T20:40:38.613Z,6.13
2022-09-13T20:43:07.778Z,6.50
2022-09-13T20:45:37.703Z,6.33
2022-09-13T20:48:06.313Z,6.10
2022-09-13T20:50:35.079Z,6.53
2022-09-13T20:53:03.651Z,6.90
2022-09-13T20:55:32.265Z,5.73
2022-09-13T20:58:01.540Z,7.30
2022-09-13T21:00:30.383Z,6.40
2022-09-13T21:03:00.335Z,6.90
2022-09-13T21:05:54.669Z,6.20
2022-09-13T21:08:40.886Z,6.87
2022-09-13T21:11:11.100Z,7.90
2022-09-13T21:13:40.736Z,6.90
2022-09-13T21:16:10.110Z,7.33
2022-09-13T21:18:41.112Z,7.00
2022-09-13T21:21:11.085Z,7.03
2022-09-13T21:23:40.236Z,7.50
2022-09-13T21:26:10.178Z,8.40
2022-09-13T21:28:39.159Z,8.00
2022-09-13T21:31:09.057Z,8.63
2022-09-13T21:33:37.770Z,9.00
2022-09-13T21:36:08.508Z,9.50
2022-09-13T21:38:37.608Z,9.10
2022-09-13T21:41:07.489Z,8.90
2022-09-13T21:43:36.065Z,9.13
2022-09-13T21:46:05.712Z,9.77
2022-09-13T21:48:35.018Z,9.30
2022-09-13T21:51:05.354Z,10.10
2022-09-13T21:53:36.447Z,9.50
2022-09-13T21:56:08.832Z,10.20
2022-09-13T21:58:38.095Z,10.90
2022-09-13T22:01:07.626Z,11.43
2022-09-13T22:03:37.193Z,9.50
2022-09-13T22:06:06.255Z,11.17
2022-09-13T22:08:39.054Z,11.20
2022-09-13T22:11:08.359Z,10.00
2022-09-13T22:13:37.528Z,10.20
2022-09-13T22:16:07.314Z,8.90
2022-09-13T22:18:36.338Z,8.77
2022-09-13T22:21:05.823Z,8.27
2022-09-13T22:23:35.848Z,9.70
2022-09-13T22:26:06.482Z,9.40
2022-09-13T22:28:35.184Z,9.83
2022-09-13T22:31:07.622Z,10.03
2022-09-13T22:33:36.576Z,10.53
2022-09-13T22:36:08.394Z,10.97
2022-09-13T22:38:40.852Z,12.03
2022-09-13T22:41:11.846Z,10.60
2022-09-13T22:43:41.572Z,11.00
2022-09-13T22:46:12.175Z,11.63
2022-09-13T22:48:41.907Z,11.80
2022-09-13T22:51:12.413Z,11.03
2022-09-13T22:53:45.233Z,11.20
2022-09-13T22:56:17.801Z,11.47
2022-09-13T22:58:47.691Z,11.90
2022-09-13T23:01:18.663Z,10.93
2022-09-13T23:03:48.769Z,10.90
2022-09-13T23:06:19.869Z,11.43
2022-09-13T23:08:50.300Z,10.97
2022-09-13T23:11:20.106Z,13.30
2022-09-13T23:13:49.458Z,15.10
2022-09-13T23:16:19.127Z,14.50
2022-09-13T23:18:47.776Z,15.00
2022-09-13T23:21:18.860Z,16.13
2022-09-13T23:23:47.517Z,16.03
2022-09-13T23:26:18.748Z,15.13
2022-09-13T23:28:48.021Z,15.13
2022-09-13T23:31:17.741Z,14.73
2022-09-13T23:33:48.086Z,14.90
2022-09-13T23:36:17.971Z,13.70
2022-09-13T23:38:47.905Z,15.00
2022-09-13T23:41:18.226Z,14.10
2022-09-13T23:43:46.908Z,13.97
2022-09-13T23:46:16.050Z,12.57
2022-09-13T23:48:44.925Z,14.20
2022-09-13T23:51:14.190Z,12.13
2022-09-13T23:53:42.935Z,12.73
2022-09-13T23:56:12.156Z,13.90
2022-09-13T23:58:42.380Z,13.90
